Terminal Aerodrome Forecast
Issued by NWS Wilmington, OH

Current Version | Previous Version | Graphics & Text | Print | Product List | Glossary On
Versions: 1 2 3 4 5 6 7 8 9 10 11 12 13 14 15 16 17 18
014
FTUS41 KILN 151123
TAFILN
TAF
KILN 151123Z 1512/1612 20012G18KT P6SM FEW015 BKN050 WS020/23040KT
     FM151400 22016G28KT P6SM VCSH BKN050
     FM151600 24018G30KT P6SM VCSH BKN015
      TEMPO 1517/1519 5SM -SHRA
     FM151900 28016G26KT P6SM OVC025
     FM152200 31012G20KT P6SM BKN050
     FM160100 32012KT P6SM BKN050
     FM160700 33005KT P6SM BKN080=

USA.gov is the U.S. government's official web portal to all federal, state and local government web resources and services.